Aberdeen, United Kingdom
Current Conditions -  °F | °C
As of 7:50 PM on Friday 31 Oct 2014 (Local Time) from EGPD Reporting Station
Broken Clouds Broken Clouds  
Wind Chill: 57°   Ceiling: 4500
Heat Index: 57°   Visibility: 5mi
Dew Point: 55°   Wind: 16mph
Humidity: 94%   Direction: 170°S
Pressure: 29.62"   Gusts: NA
Location:  57.15°N, 2.1°W
Report Text: EGPD 311950Z 17014KT 8000 FEW007 SCT034 BKN045 14/13 Q1003 NOSIG
Loading
Personal Weather Stations






























Interactive Weather Map
Tropical Storm Tracking
New forecast layout! Learn more

10-Day Weather Forecast

Advertisements
Track Severe Weather on mobile